createdAt,value
2022-11-16T00:01:32.573Z,99437.25
2022-11-16T00:04:01.077Z,99431.41
2022-11-16T00:06:29.095Z,99437.91
2022-11-16T00:09:17.045Z,99430.66
2022-11-16T00:11:45.685Z,99424.59
2022-11-16T00:14:12.567Z,99431.13
2022-11-16T00:16:39.591Z,99429.81
2022-11-16T00:19:07.233Z,99432.13
2022-11-16T00:21:34.436Z,99438.59
2022-11-16T00:24:01.873Z,99433.16
2022-11-16T00:26:29.311Z,99430.56
2022-11-16T00:28:56.489Z,99429.72
2022-11-16T00:31:23.870Z,99420.56
2022-11-16T00:33:51.098Z,99414.94
2022-11-16T00:36:17.875Z,99424.19
2022-11-16T00:38:44.666Z,99403.19
2022-11-16T00:41:13.396Z,99415.31
2022-11-16T00:43:40.267Z,99420.22
2022-11-16T00:46:07.347Z,99423.91
2022-11-16T00:48:34.407Z,99422.50
2022-11-16T00:51:01.547Z,99424.41
2022-11-16T00:53:28.474Z,99424.78
2022-11-16T00:55:55.244Z,99428.16
2022-11-16T00:58:22.151Z,99427.41
2022-11-16T01:00:54.978Z,99419.53
2022-11-16T01:03:24.146Z,99423.53
2022-11-16T01:05:51.102Z,99434.59
2022-11-16T01:08:17.886Z,99434.91
2022-11-16T01:10:44.744Z,99425.44
2022-11-16T01:13:11.644Z,99431.56
2022-11-16T01:15:38.447Z,99440.63
2022-11-16T01:18:05.236Z,99438.53
2022-11-16T01:20:32.285Z,99432.34
2022-11-16T01:22:59.089Z,99437.00
2022-11-16T01:25:25.930Z,99432.66
2022-11-16T01:27:52.725Z,99444.06
2022-11-16T01:30:26.300Z,99438.34
2022-11-16T01:33:00.225Z,99446.50
2022-11-16T01:35:27.117Z,99444.34
2022-11-16T01:37:54.069Z,99440.88
2022-11-16T01:40:20.912Z,99438.69
2022-11-16T01:42:48.025Z,99445.72
2022-11-16T01:45:39.751Z,99442.69
2022-11-16T01:48:11.213Z,99439.56
2022-11-16T01:50:38.847Z,99446.19
2022-11-16T01:53:07.592Z,99445.22
2022-11-16T01:55:43.867Z,99452.47
2022-11-16T01:58:31.617Z,99453.47
2022-11-16T02:01:08.615Z,99455.78
2022-11-16T02:03:44.797Z,99450.16
2022-11-16T02:06:20.772Z,99459.59
2022-11-16T02:09:12.917Z,99467.31
2022-11-16T02:12:33.231Z,99452.31
2022-11-16T02:15:09.069Z,99453.88
2022-11-16T02:18:12.262Z,99452.94
2022-11-16T02:20:50.645Z,99456.81
2022-11-16T02:23:36.236Z,99456.81
2022-11-16T02:26:05.976Z,99453.75
2022-11-16T02:29:05.550Z,99453.69
2022-11-16T02:31:38.111Z,99460.94
2022-11-16T02:34:08.220Z,99461.00
2022-11-16T02:36:37.496Z,99461.59
2022-11-16T02:39:11.532Z,99464.16
2022-11-16T02:41:41.131Z,99460.47
2022-11-16T02:44:47.523Z,99461.41
2022-11-16T02:47:19.464Z,99465.19
2022-11-16T02:49:54.386Z,99461.66
2022-11-16T02:52:22.961Z,99464.03
2022-11-16T02:54:49.809Z,99471.16
2022-11-16T02:57:39.300Z,99471.75
2022-11-16T03:00:12.521Z,99480.44
2022-11-16T03:03:01.126Z,99487.28
2022-11-16T03:05:39.720Z,99473.84
2022-11-16T03:08:18.987Z,99475.47
2022-11-16T03:11:09.580Z,99480.44
2022-11-16T03:13:37.775Z,99498.81
2022-11-16T03:16:12.148Z,99496.25
2022-11-16T03:18:42.104Z,99492.97
2022-11-16T03:21:27.730Z,99489.41
2022-11-16T03:23:54.855Z,99494.13
2022-11-16T03:26:24.576Z,99509.88
2022-11-16T03:28:59.043Z,99503.41
2022-11-16T03:31:38.033Z,99512.06
2022-11-16T03:34:10.867Z,99514.53
2022-11-16T03:36:41.211Z,99515.22
2022-11-16T03:39:16.963Z,99518.72
2022-11-16T03:41:47.592Z,99506.31
2022-11-16T03:44:15.571Z,99520.75
2022-11-16T03:46:43.665Z,99522.06
2022-11-16T03:49:12.142Z,99524.19
2022-11-16T03:51:39.099Z,99528.78
2022-11-16T03:54:06.147Z,99517.59
2022-11-16T03:56:34.305Z,99519.75
2022-11-16T03:59:02.640Z,99514.88
2022-11-16T04:01:30.789Z,99525.94
2022-11-16T04:03:58.434Z,99528.00
2022-11-16T04:06:43.918Z,99532.38
2022-11-16T04:09:22.813Z,99523.22
2022-11-16T04:12:08.950Z,99535.50
2022-11-16T04:14:55.947Z,99535.31
2022-11-16T04:17:43.991Z,99536.38
2022-11-16T04:20:33.177Z,99535.00
2022-11-16T04:23:23.898Z,99525.25
2022-11-16T04:25:52.441Z,99522.03
2022-11-16T04:28:25.793Z,99521.75
2022-11-16T04:31:19.449Z,99519.75
2022-11-16T04:34:14.675Z,99525.09
2022-11-16T04:37:18.485Z,99519.72
2022-11-16T04:39:45.604Z,99526.06
2022-11-16T04:42:17.831Z,99525.88
2022-11-16T04:45:05.126Z,99526.63
2022-11-16T04:47:38.002Z,99518.84
2022-11-16T04:50:05.622Z,99528.53
2022-11-16T04:52:32.401Z,99529.09
2022-11-16T04:54:59.467Z,99526.59
2022-11-16T04:57:27.381Z,99523.59
2022-11-16T04:59:55.074Z,99519.88
2022-11-16T05:02:21.933Z,99519.97
2022-11-16T05:04:53.146Z,99524.56
2022-11-16T05:07:21.571Z,99523.66
2022-11-16T05:09:50.357Z,99528.53
2022-11-16T05:12:22.015Z,99525.19
2022-11-16T05:14:52.546Z,99523.91
2022-11-16T05:17:19.957Z,99517.91
2022-11-16T05:20:07.058Z,99518.47
2022-11-16T05:22:39.564Z,99519.25
2022-11-16T05:25:07.955Z,99511.72
2022-11-16T05:27:35.823Z,99519.25
2022-11-16T05:30:04.891Z,99521.03
2022-11-16T05:32:32.240Z,99531.78
2022-11-16T05:35:00.492Z,99529.56
2022-11-16T05:37:27.429Z,99519.41
2022-11-16T05:39:55.018Z,99527.34
2022-11-16T05:42:26.521Z,99529.19
2022-11-16T05:44:54.310Z,99522.47
2022-11-16T05:47:21.166Z,99527.19
2022-11-16T05:49:48.235Z,99527.34
2022-11-16T05:52:15.229Z,99533.72
2022-11-16T05:54:44.555Z,99533.56
2022-11-16T05:57:11.785Z,99536.28
2022-11-16T05:59:38.962Z,99540.63
2022-11-16T06:02:06.290Z,99546.69
2022-11-16T06:04:34.323Z,99544.28
2022-11-16T06:07:01.507Z,99550.06
2022-11-16T06:09:32.357Z,99558.06
2022-11-16T06:12:06.368Z,99557.81
2022-11-16T06:14:33.077Z,99560.88
2022-11-16T06:16:59.993Z,99556.22
2022-11-16T06:19:32.193Z,99556.69
2022-11-16T06:21:59.558Z,99568.00
2022-11-16T06:24:28.624Z,99565.59
2022-11-16T06:26:55.529Z,99564.03
2022-11-16T06:29:22.565Z,99571.38
2022-11-16T06:31:52.092Z,99566.19
2022-11-16T06:34:18.937Z,99566.72
2022-11-16T06:36:52.060Z,99564.09
2022-11-16T06:39:19.922Z,99558.13
2022-11-16T06:41:46.836Z,99563.81
2022-11-16T06:44:14.016Z,99570.41
2022-11-16T06:46:53.227Z,99568.91
2022-11-16T06:49:21.391Z,99569.41
2022-11-16T06:51:49.958Z,99570.75
2022-11-16T06:54:20.417Z,99575.03
2022-11-16T06:56:47.960Z,99578.72
2022-11-16T06:59:14.891Z,99585.44
2022-11-16T07:01:43.426Z,99575.88
2022-11-16T07:04:15.169Z,99584.81
2022-11-16T07:06:48.467Z,99580.00
2022-11-16T07:09:16.684Z,99577.91
2022-11-16T07:11:44.082Z,99579.38
2022-11-16T07:14:12.288Z,99583.50
2022-11-16T07:16:39.270Z,99580.53
2022-11-16T07:19:06.816Z,99584.72
2022-11-16T07:21:37.137Z,99590.78
2022-11-16T07:24:07.562Z,99586.91
2022-11-16T07:26:34.822Z,99585.09
2022-11-16T07:29:08.342Z,99583.06
2022-11-16T07:31:39.189Z,99594.09
2022-11-16T07:34:24.456Z,99593.22
2022-11-16T07:37:04.316Z,99591.56
2022-11-16T07:39:31.136Z,99593.09
2022-11-16T07:41:57.970Z,99587.94
2022-11-16T07:44:29.262Z,99594.72
2022-11-16T07:47:08.407Z,99588.41
2022-11-16T07:49:36.401Z,99588.63
2022-11-16T07:52:10.904Z,99594.44
2022-11-16T07:54:46.221Z,99595.03
2022-11-16T07:57:15.042Z,99601.59
2022-11-16T07:59:42.681Z,99597.16
2022-11-16T08:02:12.336Z,99599.75
2022-11-16T08:04:40.950Z,99609.97
2022-11-16T08:07:08.838Z,99598.31
2022-11-16T08:09:43.581Z,99604.34
2022-11-16T08:12:13.973Z,99600.16
2022-11-16T08:14:41.069Z,99597.88
2022-11-16T08:17:08.491Z,99608.06
2022-11-16T08:19:39.676Z,99594.47
2022-11-16T08:22:09.052Z,99594.81
2022-11-16T08:30:10.350Z,99600.69
2022-11-16T08:32:39.147Z,99587.47
2022-11-16T08:35:06.704Z,99597.44
2022-11-16T08:37:35.051Z,99586.19
2022-11-16T08:40:03.841Z,99583.88
2022-11-16T08:42:38.226Z,99582.72
2022-11-16T08:45:08.257Z,99596.16
2022-11-16T09:04:40.044Z,99573.22
2022-11-16T09:07:06.975Z,99579.53
2022-11-16T09:09:33.822Z,99582.16
2022-11-16T09:12:00.556Z,99579.84
2022-11-16T09:14:29.139Z,99578.28
2022-11-16T09:16:56.010Z,99579.66
2022-11-16T09:19:22.751Z,99580.75
2022-11-16T09:21:53.350Z,99588.53
2022-11-16T09:24:20.170Z,99582.81
2022-11-16T09:26:46.974Z,99583.16
2022-11-16T09:29:14.974Z,99589.50
2022-11-16T09:31:42.315Z,99590.31
2022-11-16T09:34:09.295Z,99580.56
2022-11-16T09:36:36.004Z,99581.16
2022-11-16T09:39:29.585Z,99591.25
2022-11-16T09:42:15.031Z,99600.25
2022-11-16T09:44:58.855Z,99599.66
2022-11-16T09:47:43.540Z,99598.22
2022-11-16T09:50:42.955Z,99602.03
2022-11-16T09:53:32.068Z,99606.91
2022-11-16T09:56:08.471Z,99604.53
2022-11-16T09:59:00.350Z,99599.66
2022-11-16T10:01:56.604Z,99602.13
2022-11-16T10:04:38.460Z,99593.81
2022-11-16T10:07:14.000Z,99599.31
2022-11-16T10:09:41.254Z,99604.13
2022-11-16T10:12:10.813Z,99619.59
2022-11-16T10:14:47.252Z,99614.19
2022-11-16T10:17:13.937Z,99614.19
2022-11-16T10:20:06.637Z,99607.47
2022-11-16T10:22:40.316Z,99615.72
2022-11-16T10:25:15.808Z,99615.53
2022-11-16T10:28:00.824Z,99604.97
2022-11-16T10:30:27.808Z,99602.22
2022-11-16T10:33:17.680Z,99599.47
2022-11-16T10:35:54.971Z,99604.81
2022-11-16T10:38:28.294Z,99591.19
2022-11-16T10:41:03.122Z,99597.84
2022-11-16T10:43:34.040Z,99589.06
2022-11-16T10:46:12.795Z,99584.66
2022-11-16T10:49:05.212Z,99584.50
2022-11-16T10:51:32.032Z,99569.22
2022-11-16T10:53:58.980Z,99569.22
2022-11-16T10:56:32.553Z,99558.19
2022-11-16T10:59:04.033Z,99567.97
2022-11-16T11:01:30.804Z,99562.44
2022-11-16T11:03:58.474Z,99556.94
2022-11-16T11:06:26.254Z,99561.94
2022-11-16T11:08:53.446Z,99559.28
2022-11-16T11:11:41.039Z,99569.94
2022-11-16T11:14:12.886Z,99559.91
2022-11-16T11:16:41.570Z,99548.16
2022-11-16T11:19:18.938Z,99559.59
2022-11-16T11:21:47.111Z,99553.00
2022-11-16T11:24:43.397Z,99550.84
2022-11-16T11:27:04.756Z,99545.09
2022-11-16T11:29:34.781Z,99553.00
2022-11-16T11:32:05.755Z,99550.16
2022-11-16T11:34:39.861Z,99550.03
2022-11-16T11:37:13.936Z,99552.69
2022-11-16T11:39:40.777Z,99546.31
2022-11-16T11:42:07.604Z,99541.22
2022-11-16T11:44:50.325Z,99536.50
2022-11-16T11:48:02.711Z,99540.59
2022-11-16T11:50:45.919Z,99539.91
2022-11-16T11:53:24.760Z,99528.56
2022-11-16T11:55:56.214Z,99528.38
2022-11-16T11:58:28.601Z,99526.50
2022-11-16T12:01:19.507Z,99522.91
2022-11-16T12:04:31.217Z,99526.59
2022-11-16T12:07:08.670Z,99518.75
2022-11-16T12:09:46.343Z,99517.72
2022-11-16T12:12:34.623Z,99515.72
2022-11-16T12:15:19.927Z,99522.53
2022-11-16T12:18:14.534Z,99516.44
2022-11-16T12:20:41.242Z,99518.72
2022-11-16T12:23:29.596Z,99509.09
2022-11-16T12:26:14.751Z,99504.38
2022-11-16T12:28:52.567Z,99507.81
2022-11-16T12:31:37.882Z,99499.44
2022-11-16T12:34:14.479Z,99501.06
2022-11-16T12:37:10.300Z,99492.78
2022-11-16T12:39:58.341Z,99490.34
2022-11-16T12:42:54.660Z,99486.31
2022-11-16T12:45:42.298Z,99484.63
2022-11-16T12:48:32.922Z,99493.84
2022-11-16T12:51:03.248Z,99481.16
2022-11-16T12:53:51.727Z,99486.63
2022-11-16T12:56:49.139Z,99481.34
2022-11-16T12:59:36.316Z,99485.03
2022-11-16T13:02:21.958Z,99489.16
2022-11-16T13:04:57.593Z,99486.69
2022-11-16T13:07:44.156Z,99477.72
2022-11-16T13:10:24.315Z,99490.81
2022-11-16T13:13:08.973Z,99479.31
2022-11-16T13:15:41.722Z,99491.75
2022-11-16T13:18:13.465Z,99480.28
2022-11-16T13:20:49.161Z,99484.03
2022-11-16T13:23:42.139Z,99477.44
2022-11-16T13:26:23.670Z,99471.72
2022-11-16T13:29:06.830Z,99467.44
2022-11-16T13:31:34.364Z,99468.72
2022-11-16T13:34:05.201Z,99466.22
2022-11-16T13:36:43.846Z,99466.75
2022-11-16T13:39:17.040Z,99461.97
2022-11-16T13:41:49.292Z,99457.88
2022-11-16T13:44:20.532Z,99452.06
2022-11-16T13:46:56.744Z,99443.06
2022-11-16T13:49:31.065Z,99438.81
2022-11-16T13:52:11.631Z,99457.13
2022-11-16T13:54:50.929Z,99443.34
2022-11-16T13:57:25.110Z,99451.28
2022-11-16T14:00:12.079Z,99442.50
2022-11-16T14:02:42.398Z,99431.06
2022-11-16T14:05:12.675Z,99430.19
2022-11-16T14:07:43.270Z,99425.56
2022-11-16T14:10:13.192Z,99424.47
2022-11-16T14:12:54.626Z,99432.25
2022-11-16T14:15:27.168Z,99424.97
2022-11-16T14:17:59.951Z,99411.09
2022-11-16T14:20:51.220Z,99423.50
2022-11-16T14:23:27.086Z,99421.66
2022-11-16T14:26:45.872Z,99413.25
2022-11-16T14:29:16.072Z,99409.19
2022-11-16T14:31:52.429Z,99412.38
2022-11-16T14:34:44.004Z,99401.97
2022-11-16T14:37:13.530Z,99395.56
2022-11-16T14:39:43.033Z,99394.59
2022-11-16T14:42:25.767Z,99396.47
2022-11-16T14:45:12.323Z,99393.22
2022-11-16T14:47:39.673Z,99390.28
2022-11-16T14:50:18.356Z,99386.75
2022-11-16T14:52:47.861Z,99378.56
2022-11-16T14:55:24.480Z,99371.22
2022-11-16T14:58:27.066Z,99370.16
2022-11-16T15:00:56.597Z,99376.88
2022-11-16T15:03:26.281Z,99360.34
2022-11-16T15:05:57.809Z,99368.72
2022-11-16T15:08:39.339Z,99374.44
2022-11-16T15:11:08.657Z,99371.31
2022-11-16T15:13:35.892Z,99365.09
2022-11-16T15:16:17.577Z,99355.38
2022-11-16T15:19:01.863Z,99358.34
2022-11-16T15:21:29.331Z,99348.84
2022-11-16T15:26:44.874Z,99343.72
2022-11-16T15:29:17.714Z,99342.88
2022-11-16T15:31:47.645Z,99339.56
2022-11-16T15:34:17.178Z,99329.03
2022-11-16T15:36:44.177Z,99320.50
2022-11-16T15:39:28.677Z,99308.28
2022-11-16T15:42:03.421Z,99312.94
2022-11-16T15:44:32.084Z,99301.94
2022-11-16T15:47:02.499Z,99299.41
2022-11-16T15:49:37.926Z,99301.84
2022-11-16T15:52:11.701Z,99281.50
2022-11-16T15:55:00.103Z,99274.59
2022-11-16T15:57:30.308Z,99264.56
2022-11-16T16:00:32.170Z,99263.28
2022-11-16T16:03:26.918Z,99263.59
2022-11-16T16:05:54.971Z,99260.44
2022-11-16T16:08:42.088Z,99270.97
2022-11-16T16:11:27.081Z,99264.94
2022-11-16T16:13:58.387Z,99266.31
2022-11-16T16:16:36.426Z,99255.75
2022-11-16T16:19:09.934Z,99257.38
2022-11-16T16:21:43.091Z,99247.91
2022-11-16T16:24:36.890Z,99239.56
2022-11-16T16:27:32.882Z,99239.63
2022-11-16T16:30:05.139Z,99235.56
2022-11-16T16:32:39.497Z,99212.22
2022-11-16T16:35:09.031Z,99228.47
2022-11-16T16:37:38.631Z,99234.19
2022-11-16T17:12:21.774Z,99203.00
2022-11-16T17:14:52.138Z,99198.81
2022-11-16T17:17:24.426Z,99201.59
2022-11-16T17:19:52.004Z,99206.25
2022-11-16T17:22:20.030Z,99203.47
2022-11-16T17:24:47.199Z,99201.75
2022-11-16T17:27:14.457Z,99183.28
2022-11-16T17:29:41.667Z,99175.63
2022-11-16T17:32:08.691Z,99179.09
2022-11-16T17:34:35.852Z,99178.84
2022-11-16T17:37:02.759Z,99189.06
2022-11-16T17:39:29.735Z,99194.50
2022-11-16T17:41:56.766Z,99195.50
2022-11-16T17:44:23.847Z,99194.13
2022-11-16T17:46:50.691Z,99188.03
2022-11-16T17:49:17.604Z,99172.34
2022-11-16T17:51:44.640Z,99183.16
2022-11-16T17:54:11.829Z,99186.22
2022-11-16T17:56:38.747Z,99181.38
2022-11-16T17:59:05.599Z,99181.22
2022-11-16T18:01:32.782Z,99167.38
2022-11-16T18:04:00.589Z,99175.91
2022-11-16T18:06:31.194Z,99174.44
2022-11-16T18:08:58.157Z,99162.22
2022-11-16T18:11:27.255Z,99185.28
2022-11-16T18:13:55.948Z,99175.22
2022-11-16T18:16:24.866Z,99170.53
2022-11-16T18:19:02.740Z,99167.16
2022-11-16T18:21:30.193Z,99173.84
2022-11-16T18:24:03.920Z,99174.22
2022-11-16T18:26:30.761Z,99173.66
2022-11-16T18:28:57.901Z,99156.75
2022-11-16T18:31:25.137Z,99158.06
2022-11-16T18:33:52.526Z,99158.41
2022-11-16T18:36:21.010Z,99158.34
2022-11-16T18:38:47.771Z,99152.41
2022-11-16T18:41:14.670Z,99143.78
2022-11-16T18:43:55.950Z,99140.81
2022-11-16T18:46:25.736Z,99128.69
2022-11-16T18:48:53.129Z,99126.53
2022-11-16T18:51:21.683Z,99103.06
2022-11-16T18:53:48.736Z,99097.00
2022-11-16T18:56:16.734Z,99091.47
2022-11-16T18:58:50.473Z,99085.56
2022-11-16T19:01:21.035Z,99076.47
2022-11-16T19:03:48.027Z,99070.16
2022-11-16T19:06:17.224Z,99066.78
2022-11-16T19:08:46.901Z,99052.03
2022-11-16T19:11:17.351Z,99048.34
2022-11-16T19:13:44.945Z,99039.53
2022-11-16T19:16:13.413Z,99027.34
2022-11-16T19:18:41.063Z,99027.31
2022-11-16T19:21:10.057Z,99010.81
2022-11-16T19:23:47.746Z,99013.84
2022-11-16T19:26:16.972Z,99009.81
2022-11-16T19:28:45.568Z,98998.78
2022-11-16T19:31:20.355Z,98992.28
2022-11-16T19:33:47.742Z,98987.81
2022-11-16T19:36:16.995Z,98978.88
2022-11-16T19:38:44.920Z,98975.75
2022-11-16T19:41:13.178Z,98977.78
2022-11-16T19:43:40.066Z,98983.91
2022-11-16T19:46:09.381Z,98972.63
2022-11-16T19:48:36.859Z,98975.06
2022-11-16T19:51:09.189Z,98967.25
2022-11-16T19:53:37.239Z,98964.53
2022-11-16T19:56:05.438Z,98952.16
2022-11-16T19:58:34.055Z,98945.28
2022-11-16T20:01:05.839Z,98938.84
2022-11-16T20:03:33.423Z,98925.72
2022-11-16T20:06:18.888Z,98925.69
2022-11-16T20:08:54.010Z,98911.88
2022-11-16T20:11:26.103Z,98912.38
2022-11-16T20:13:54.942Z,98906.34
2022-11-16T20:16:23.976Z,98895.53
2022-11-16T20:18:51.945Z,98887.06
2022-11-16T20:21:26.657Z,98880.28
2022-11-16T20:23:53.800Z,98872.50
2022-11-16T20:26:21.533Z,98864.94
2022-11-16T20:28:51.150Z,98848.03
2022-11-16T20:31:20.521Z,98836.13
2022-11-16T20:34:06.159Z,98817.69
2022-11-16T20:36:33.821Z,98805.75
2022-11-16T20:39:01.695Z,98802.50
2022-11-16T20:41:30.417Z,98793.09
2022-11-16T20:43:59.570Z,98787.28
2022-11-16T20:46:28.879Z,98787.22
2022-11-16T20:48:57.386Z,98785.53
2022-11-16T20:51:24.459Z,98766.75
2022-11-16T20:53:52.186Z,98767.63
2022-11-16T20:56:20.455Z,98759.53
2022-11-16T20:58:48.346Z,98754.50
2022-11-16T21:01:20.241Z,98736.13
2022-11-16T21:03:47.266Z,98732.13
2022-11-16T21:06:14.788Z,98724.16
2022-11-16T21:08:42.181Z,98708.53
2022-11-16T21:11:19.656Z,98694.03
2022-11-16T21:14:06.273Z,98671.56
2022-11-16T21:16:33.846Z,98644.75
2022-11-16T21:19:01.009Z,98640.16
2022-11-16T21:21:28.927Z,98643.25
2022-11-16T21:23:56.069Z,98616.56
2022-11-16T21:26:26.542Z,98598.00
2022-11-16T21:29:00.467Z,98583.16
2022-11-16T21:31:32.424Z,98571.13
2022-11-16T21:34:03.031Z,98577.97
2022-11-16T21:36:31.612Z,98563.25
2022-11-16T21:38:58.808Z,98569.34
2022-11-16T21:41:26.764Z,98537.19
2022-11-16T21:43:54.328Z,98529.66
2022-11-16T21:46:23.391Z,98517.25
2022-11-16T21:48:56.743Z,98484.91
2022-11-16T21:51:26.965Z,98478.38
2022-11-16T21:53:54.491Z,98475.81
2022-11-16T21:56:23.435Z,98488.28
2022-11-16T21:58:52.646Z,98491.19
2022-11-16T22:01:23.350Z,98480.13
2022-11-16T22:04:11.751Z,98464.16
2022-11-16T22:06:57.622Z,98465.59
2022-11-16T22:09:24.885Z,98470.75
2022-11-16T22:11:54.763Z,98461.13
2022-11-16T22:14:21.643Z,98459.94
2022-11-16T22:16:49.902Z,98450.31
2022-11-16T22:19:24.710Z,98429.72
2022-11-16T22:21:56.977Z,98411.50
2022-11-16T22:24:24.179Z,98413.44
2022-11-16T22:27:01.776Z,98425.06
2022-11-16T22:29:28.812Z,98415.75
2022-11-16T22:32:00.409Z,98408.34
2022-11-16T22:34:30.293Z,98397.19
2022-11-16T22:36:57.644Z,98374.97
2022-11-16T22:39:24.695Z,98371.28
2022-11-16T22:41:59.033Z,98380.16
2022-11-16T22:44:34.634Z,98360.09
2022-11-16T22:47:03.962Z,98368.84
2022-11-16T22:49:30.673Z,98368.84
2022-11-16T22:51:57.961Z,98347.97
2022-11-16T22:54:28.664Z,98346.06
2022-11-16T22:57:02.508Z,98342.16
2022-11-16T22:59:29.978Z,98324.69
2022-11-16T23:01:57.213Z,98321.53
2022-11-16T23:04:24.620Z,98308.84
2022-11-16T23:06:53.789Z,98300.66
2022-11-16T23:09:22.330Z,98309.16
2022-11-16T23:12:08.767Z,98287.88
2022-11-16T23:14:54.590Z,98273.94
2022-11-16T23:17:21.586Z,98266.59
2022-11-16T23:20:17.326Z,98257.22
2022-11-16T23:23:06.843Z,98244.88
2022-11-16T23:26:04.532Z,98225.41
2022-11-16T23:28:34.975Z,98228.97
2022-11-16T23:31:11.989Z,98249.53
2022-11-16T23:34:33.610Z,98246.41
2022-11-16T23:37:08.585Z,98222.38
2022-11-16T23:43:43.244Z,98209.56
2022-11-16T23:56:26.849Z,98212.31
